Alexandria, LA

8:54 PM CST on November 21, 2014 (GMT -0600)
Good Earth | Change Station
CLOSE
Current Station
Personal Weather Station
Location: Alexandria, LA
Elevation: 80 ft
Nearby Weather Stations

Elev 80 ft 31.27 °N, 92.50 °W | Updated 6 minutes ago

Overcast
Overcast
62.5 °F
Feels Like 62.5 °F
N
1.0
Wind Variable Wind from SSE
Gusts 10.0 mph

Today
High -- | Low -- °F
--% Chance of Precip.
Yesterday
High -- | Low -- °F
Precip. -- in
6:42 AM 5:08 PM
Waning Crescent, 0% visible
Pressure 30.22 in
Visibility 10.0 miles
Clouds Scattered Clouds 7500 ft
Overcast 9000 ft
Dew Point 51 °F
Humidity 67%
Rainfall 0.00 in
Snow Depth Not available.
UV 0 out of 12
Pollen .30 out of 12
Air Quality Not available.
Flu Activity Not available.
METAR KAEX 220153Z 12009KT 10SM SCT075 OVC090 17/08 A3021 RMK AO2 SLP234 T01720078

More Conditions Fewer Conditions

Pressure 30.22 in
Visibility 10.0 miles
Clouds Scattered Clouds 7500 ft
Overcast 9000 ft
Dew Point 51 °F
Humidity 67%
Rainfall 0.00 in
Snow Depth Not available.
UV 0 out of 12
Pollen .30 out of 12
Air Quality Not available.
Flu Activity Not available.
METAR KAEX 220153Z 12009KT 10SM SCT075 OVC090 17/08 A3021 RMK AO2 SLP234 T01720078

More Conditions Fewer Conditions

10-Day Weather Forecast

Almanac

Astronomy

Nov. 21, 2014 Rise Set
Actual Time
Civil Twilight
Nautical Twilight
Astronomical Twilight
Moon
Length of Visible Light
Length of Day
Tomorrow will be .
, % of the Moon is Illuminated

Today's Extremes

State Highs State Lows

Community

WunderPhotos

Upload Photos

1,772,761 photos uploaded!

WunderBlogs® & News

Nearby

Air Quality

  Air Quality AQ Index Pollutant
Not available.

Snow Depth

Station Depth Elevation

Earthquake Activity

City Distance Mag. Time & Date
Minimum magnitude displayed is 2.5.

Coastal Water Temperatures

Place Temperature

Nearby Weather Stations